Time;durP1;ratioP1;P1;durP2;ratioP2;P2;SDS_P1;SDS_P2;PMS_P1;PMS_P2;Temp;Humidity;BMP_temperature;BMP_pressure;BME280_temperature;BME280_humidity;BME280_pressure;Samples;Min_cycle;Max_cycle;Signal;HPM_P1;HPM_P2
2023/05/18 00:01:32;;;;;;;10.48;2.22;;;;;;;5.75;80.87;102651.72;4967587;28;20178;-48
2023/05/18 00:03:57;;;;;;;9.48;2.35;;;;;;;5.82;81.46;102650.06;4951772;28;20209;-48
2023/05/18 00:06:24;;;;;;;12.73;2.63;;;;;;;5.51;82.00;102662.97;4970141;28;20289;-49
2023/05/18 00:08:50;;;;;;;8.55;2.10;;;;;;;5.58;82.73;102654.22;4963923;28;20194;-48
2023/05/18 00:11:16;;;;;;;8.80;2.40;;;;;;;5.71;82.59;102666.78;4943523;28;20716;-49
2023/05/18 00:13:42;;;;;;;11.73;2.55;;;;;;;5.58;82.89;102657.75;4964404;28;20205;-50
2023/05/18 00:16:10;;;;;;;8.88;2.35;;;;;;;5.50;83.24;102671.84;4968594;28;20572;-48
2023/05/18 00:18:36;;;;;;;7.68;2.00;;;;;;;5.39;83.43;102670.81;4966878;28;20435;-48
2023/05/18 00:21:02;;;;;;;7.45;2.33;;;;;;;5.33;83.56;102669.84;4966302;28;20306;-48
2023/05/18 00:23:29;;;;;;;8.85;2.10;;;;;;;5.39;83.75;102682.34;4951172;28;20210;-47
2023/05/18 00:25:59;;;;;;;7.93;2.22;;;;;;;5.40;84.06;102675.25;4953992;28;20202;-48
2023/05/18 00:28:25;;;;;;;7.72;2.50;;;;;;;5.33;84.30;102677.81;4965471;28;20175;-49
2023/05/18 00:30:52;;;;;;;7.88;1.77;;;;;;;5.19;84.62;102676.75;4967440;28;20556;-50
2023/05/18 00:33:19;;;;;;;8.80;2.40;;;;;;;5.31;85.06;102682.25;4949710;28;20198;-49
2023/05/18 00:35:45;;;;;;;7.47;2.17;;;;;;;5.34;85.53;102684.94;4953469;28;20184;-50
2023/05/18 00:38:11;;;;;;;12.43;2.63;;;;;;;5.09;85.32;102688.13;4953783;28;20257;-48
2023/05/18 00:40:38;;;;;;;7.78;2.30;;;;;;;5.05;86.08;102678.31;4966776;28;20261;-50
2023/05/18 00:43:03;;;;;;;8.88;2.25;;;;;;;5.18;86.04;102680.25;4964375;28;20645;-49
2023/05/18 00:45:29;;;;;;;9.98;2.47;;;;;;;5.11;86.70;102684.59;4968484;28;20210;-49
2023/05/18 00:47:55;;;;;;;14.68;3.10;;;;;;;5.20;87.36;102694.47;4953074;28;20221;-47
2023/05/18 00:50:20;;;;;;;7.43;2.42;;;;;;;5.12;87.36;102680.22;4965143;28;20653;-47
2023/05/18 00:52:46;;;;;;;5.80;2.40;;;;;;;4.99;87.33;102683.56;4968590;28;20198;-48
2023/05/18 00:55:13;;;;;;;11.40;2.17;;;;;;;4.99;88.21;102696.84;4961061;28;20253;-50
2023/05/18 00:57:43;;;;;;;7.70;2.55;;;;;;;5.18;88.71;102697.97;4965373;28;20546;-49
2023/05/18 01:00:12;;;;;;;8.80;2.33;;;;;;;5.28;89.00;102703.44;4952229;28;20218;-48
2023/05/18 01:02:41;;;;;;;5.55;2.58;;;;;;;5.18;88.98;102698.88;4947181;28;20490;-49
2023/05/18 01:05:09;;;;;;;9.38;2.47;;;;;;;5.15;89.61;102696.19;4965620;28;20181;-48
2023/05/18 01:07:43;;;;;;;6.55;2.05;;;;;;;5.29;89.79;102691.03;4967100;28;20261;-50
2023/05/18 01:10:11;;;;;;;7.72;2.30;;;;;;;5.31;90.23;102700.84;4963170;28;20240;-50
2023/05/18 01:12:42;;;;;;;7.90;2.53;;;;;;;5.26;90.33;102702.53;4951259;28;20258;-51
2023/05/18 01:15:17;;;;;;;12.27;2.55;;;;;;;5.24;90.81;102700.72;4964959;28;20185;-49
2023/05/18 01:17:55;;;;;;;11.85;2.30;;;;;;;5.29;91.23;102691.97;4965617;28;20194;-50
2023/05/18 01:20:28;;;;;;;8.38;3.78;;;;;;;5.39;91.51;102694.75;4966390;28;20186;-48
2023/05/18 01:23:34;;;;;;;14.35;5.07;;;;;;;5.36;91.87;102696.47;4960149;28;20261;-48
2023/05/18 01:26:16;;;;;;;12.80;5.43;;;;;;;5.41;91.62;102699.19;4961359;28;20201;-48
2023/05/18 01:28:45;;;;;;;9.82;3.20;;;;;;;5.52;92.46;102704.66;4936735;28;20782;-49
2023/05/18 01:31:13;;;;;;;10.85;2.92;;;;;;;5.50;92.44;102699.31;4958526;28;20194;-48
2023/05/18 01:33:38;;;;;;;10.63;2.83;;;;;;;5.42;92.71;102697.41;4947951;28;20207;-48
2023/05/18 01:36:04;;;;;;;13.20;4.55;;;;;;;5.34;93.23;102700.00;4963283;28;20177;-48
2023/05/18 01:38:30;;;;;;;12.40;3.13;;;;;;;5.39;93.42;102692.09;4952833;28;20272;-49
2023/05/18 01:41:02;;;;;;;8.13;2.50;;;;;;;5.43;94.11;102700.13;4966175;28;20228;-50
2023/05/18 01:43:34;;;;;;;6.13;2.47;;;;;;;5.59;94.22;102701.19;4961209;28;20210;-49
2023/05/18 01:46:07;;;;;;;6.85;2.63;;;;;;;5.62;94.32;102703.91;4962124;28;20206;-48
2023/05/18 01:48:38;;;;;;;7.20;2.42;;;;;;;5.63;93.89;102710.13;4965646;28;20190;-49
2023/05/18 01:51:07;;;;;;;7.95;2.50;;;;;;;5.77;93.68;102692.53;4966647;28;20657;-50
2023/05/18 01:53:41;;;;;;;6.85;2.08;;;;;;;5.78;93.82;102703.19;4935224;28;20216;-48
2023/05/18 01:56:09;;;;;;;13.15;2.83;;;;;;;5.76;93.50;102712.94;4941073;28;20176;-48
2023/05/18 01:58:36;;;;;;;10.77;2.22;;;;;;;5.70;93.25;102711.97;4952604;28;20727;-49
2023/05/18 02:01:03;;;;;;;7.78;2.58;;;;;;;5.75;93.33;102715.56;4951659;28;20186;-49
2023/05/18 02:03:32;;;;;;;11.48;2.65;;;;;;;5.64;93.10;102711.88;4943932;28;20205;-49
2023/05/18 02:05:58;;;;;;;10.90;3.42;;;;;;;5.61;92.93;102704.78;4952151;28;20217;-50
2023/05/18 02:08:24;;;;;;;10.00;2.58;;;;;;;5.64;92.90;102702.16;4951165;28;20838;-50
2023/05/18 02:10:51;;;;;;;12.30;2.90;;;;;;;5.72;93.04;102705.78;4963119;28;20222;-49
2023/05/18 02:13:16;;;;;;;7.97;2.63;;;;;;;5.71;93.14;102706.69;4967066;28;20653;-47
2023/05/18 02:15:43;;;;;;;9.98;2.75;;;;;;;5.66;92.73;102707.47;4963228;28;20202;-48
2023/05/18 02:18:10;;;;;;;8.98;2.20;;;;;;;5.73;92.47;102707.59;4971528;28;20197;-48
2023/05/18 02:20:36;;;;;;;11.18;3.15;;;;;;;5.61;92.37;102707.44;4970692;28;20193;-50
2023/05/18 02:23:03;;;;;;;7.68;2.50;;;;;;;5.66;92.50;102703.03;4982360;28;20252;-48
2023/05/18 02:25:28;;;;;;;10.73;2.85;;;;;;;5.58;92.69;102713.59;4972881;28;20209;-47
2023/05/18 02:27:54;;;;;;;11.13;3.25;;;;;;;5.61;92.30;102711.84;4973183;28;20178;-48
2023/05/18 02:30:19;;;;;;;7.03;2.50;;;;;;;5.57;92.11;102705.59;4962818;28;20237;-47
2023/05/18 02:32:45;;;;;;;8.57;2.78;;;;;;;5.49;92.26;102707.28;4966287;28;20196;-48
2023/05/18 02:35:11;;;;;;;6.95;2.45;;;;;;;5.61;92.53;102711.84;4974246;28;20228;-46
2023/05/18 02:37:38;;;;;;;6.80;2.47;;;;;;;5.49;92.21;102712.59;4974610;28;20612;-49
2023/05/18 02:40:12;;;;;;;12.80;2.63;;;;;;;5.49;92.17;102712.59;4972769;28;20264;-52
2023/05/18 02:42:39;;;;;;;9.38;2.25;;;;;;;5.47;92.09;102719.66;4964901;28;20254;-51
2023/05/18 02:45:05;;;;;;;9.70;2.85;;;;;;;5.47;92.31;102720.56;4971531;28;20261;-49
2023/05/18 02:47:31;;;;;;;8.07;2.90;;;;;;;5.20;92.02;102715.72;4972952;28;20596;-47
2023/05/18 02:49:57;;;;;;;6.32;2.47;;;;;;;5.10;92.70;102725.34;4973839;28;20186;-50
2023/05/18 02:52:23;;;;;;;19.08;3.47;;;;;;;5.08;93.17;102716.44;4972906;28;20344;-49
2023/05/18 02:54:49;;;;;;;10.10;2.63;;;;;;;5.15;93.59;102726.28;4970290;28;20194;-47
2023/05/18 02:57:22;;;;;;;8.68;2.53;;;;;;;4.84;94.22;102714.31;4972893;28;20264;-47
2023/05/18 02:59:57;;;;;;;8.98;2.67;;;;;;;4.94;95.00;102718.00;4972788;28;20213;-48
2023/05/18 03:02:23;;;;;;;8.50;2.47;;;;;;;4.88;95.83;102724.13;4970131;28;20244;-49
2023/05/18 03:04:52;;;;;;;6.93;2.92;;;;;;;4.86;96.35;102723.19;4972152;28;20293;-48
2023/05/18 03:07:22;;;;;;;11.68;3.28;;;;;;;4.83;97.16;102717.84;4971167;28;20580;-46
2023/05/18 03:09:48;;;;;;;6.53;2.85;;;;;;;4.91;97.27;102720.63;4972148;28;20189;-50
2023/05/18 03:12:13;;;;;;;15.68;2.70;;;;;;;4.95;97.54;102723.34;4971397;28;20585;-48
2023/05/18 03:14:39;;;;;;;11.13;2.80;;;;;;;5.05;97.98;102721.72;4970930;28;20224;-49
2023/05/18 03:17:05;;;;;;;10.93;2.85;;;;;;;5.05;97.90;102716.41;4969339;28;20560;-46
2023/05/18 03:19:33;;;;;;;9.20;2.65;;;;;;;5.16;98.10;102725.44;4985070;28;20190;-47
2023/05/18 03:21:59;;;;;;;9.82;2.45;;;;;;;5.12;97.61;102715.63;4970848;28;20185;-47
2023/05/18 03:24:25;;;;;;;8.48;2.30;;;;;;;5.14;97.90;102726.28;4968562;28;20207;-48
2023/05/18 03:26:54;;;;;;;10.93;2.80;;;;;;;5.18;97.89;102722.78;4966373;28;20209;-49
2023/05/18 03:29:20;;;;;;;5.70;1.90;;;;;;;5.30;97.64;102730.94;4955728;28;20584;-50
2023/05/18 03:31:46;;;;;;;6.97;2.05;;;;;;;5.35;97.49;102731.88;4971722;28;20253;-51
2023/05/18 03:34:12;;;;;;;5.75;2.53;;;;;;;5.45;97.63;102729.38;4968307;28;20206;-48
2023/05/18 03:36:38;;;;;;;5.30;1.88;;;;;;;5.52;97.40;102736.56;4954518;28;20185;-47
2023/05/18 03:39:08;;;;;;;7.45;2.22;;;;;;;5.47;97.00;102730.31;4963949;28;20665;-49
2023/05/18 03:41:34;;;;;;;14.90;3.10;;;;;;;5.51;97.04;102726.78;4971637;28;20193;-46
2023/05/18 03:43:59;;;;;;;8.82;2.47;;;;;;;5.42;96.85;102730.22;4970323;28;20206;-50
2023/05/18 03:46:26;;;;;;;7.82;2.15;;;;;;;5.55;96.33;102731.28;4971559;28;20197;-48
2023/05/18 03:48:53;;;;;;;10.60;2.22;;;;;;;5.61;96.00;102734.00;4962244;28;20190;-50
2023/05/18 03:51:22;;;;;;;9.15;2.05;;;;;;;5.68;95.48;102743.84;4979898;28;20232;-49
2023/05/18 03:53:48;;;;;;;12.30;2.40;;;;;;;5.73;94.44;102734.19;4967687;28;20560;-48
2023/05/18 03:56:14;;;;;;;11.88;2.40;;;;;;;5.77;93.74;102746.66;4967201;28;20217;-46
2023/05/18 03:58:41;;;;;;;13.35;2.47;;;;;;;5.79;93.35;102743.97;4973036;28;20183;-49
2023/05/18 04:01:07;;;;;;;8.43;2.80;;;;;;;5.87;92.84;102744.09;4971274;28;20232;-48
2023/05/18 04:03:33;;;;;;;14.80;2.70;;;;;;;5.94;92.63;102749.53;4955338;28;20198;-48
2023/05/18 04:05:58;;;;;;;9.73;2.40;;;;;;;5.88;92.12;102751.19;4971839;28;20202;-47
2023/05/18 04:08:24;;;;;;;7.28;2.38;;;;;;;6.06;91.72;102753.22;4971467;28;20682;-51
2023/05/18 04:10:51;;;;;;;8.23;2.20;;;;;;;6.03;91.11;102747.84;4971653;28;20194;-48
2023/05/18 04:13:17;;;;;;;15.07;2.45;;;;;;;5.95;90.69;102755.75;4968007;28;20194;-49
2023/05/18 04:15:43;;;;;;;13.02;2.38;;;;;;;5.98;90.52;102747.81;4968359;28;20544;-49
2023/05/18 04:18:09;;;;;;;10.98;3.10;;;;;;;6.03;89.87;102738.09;4969559;28;20201;-48
2023/05/18 04:20:36;;;;;;;10.77;2.30;;;;;;;6.05;89.03;102744.34;4967347;28;20268;-51
2023/05/18 04:23:03;;;;;;;10.63;2.30;;;;;;;6.11;87.68;102736.41;4963097;28;20242;-50
2023/05/18 04:25:30;;;;;;;10.70;2.33;;;;;;;6.20;86.40;102743.63;4970911;28;20177;-47
2023/05/18 04:27:55;;;;;;;6.95;2.10;;;;;;;6.16;86.38;102737.34;4968136;28;20269;-48
2023/05/18 04:30:28;;;;;;;5.07;2.30;;;;;;;6.28;85.99;102747.25;4970139;28;20708;-52
2023/05/18 04:32:56;;;;;;;8.75;2.20;;;;;;;6.36;85.37;102742.91;4963216;28;20202;-49
2023/05/18 04:35:25;;;;;;;7.28;2.00;;;;;;;6.42;84.86;102741.19;4964535;28;20206;-49
2023/05/18 04:37:51;;;;;;;5.70;2.03;;;;;;;6.47;84.10;102743.03;4965381;28;20190;-49
2023/05/18 04:40:17;;;;;;;7.78;2.15;;;;;;;6.39;83.51;102739.38;4964833;28;20197;-48
2023/05/18 04:42:46;;;;;;;9.45;2.10;;;;;;;6.46;83.33;102740.34;4973840;28;20653;-47
2023/05/18 04:45:21;;;;;;;11.85;2.47;;;;;;;6.44;82.26;102740.31;4965331;28;20210;-48
2023/05/18 04:47:52;;;;;;;7.93;2.80;;;;;;;6.48;81.84;102742.13;4960326;28;20186;-49
2023/05/18 04:50:19;;;;;;;5.63;1.92;;;;;;;6.55;81.15;102740.41;4960911;28;20583;-51
2023/05/18 04:52:49;;;;;;;11.57;2.20;;;;;;;6.63;80.85;102743.16;4962417;28;20534;-46
2023/05/18 04:55:21;;;;;;;5.10;1.80;;;;;;;6.75;80.61;102736.13;4970645;28;20212;-48
2023/05/18 04:57:49;;;;;;;7.80;2.00;;;;;;;6.82;80.63;102745.06;4969936;28;20182;-50
2023/05/18 05:00:15;;;;;;;5.65;2.40;;;;;;;6.68;80.08;102744.09;4959846;28;20274;-48
2023/05/18 05:02:41;;;;;;;7.88;2.13;;;;;;;6.63;79.66;102736.06;4970446;28;20229;-47
2023/05/18 05:05:07;;;;;;;9.18;2.20;;;;;;;6.73;79.40;102731.69;4970667;28;20186;-48
2023/05/18 05:07:33;;;;;;;12.02;2.08;;;;;;;6.86;79.25;102744.22;4969760;28;20575;-49
2023/05/18 05:09:58;;;;;;;7.53;2.50;;;;;;;6.91;79.32;102742.50;4970689;28;20178;-49
2023/05/18 05:12:23;;;;;;;4.40;2.00;;;;;;;6.90;78.74;102737.16;4962194;28;20306;-45
2023/05/18 05:14:49;;;;;;;7.45;1.90;;;;;;;6.93;78.53;102740.75;4967600;28;20285;-48
2023/05/18 05:17:15;;;;;;;10.18;2.08;;;;;;;6.88;76.83;102733.59;4970011;28;20292;-48
2023/05/18 05:19:41;;;;;;;9.32;2.30;;;;;;;6.97;76.77;102737.19;4962585;28;20259;-48
2023/05/18 05:22:07;;;;;;;10.68;2.20;;;;;;;6.80;76.72;102737.09;4967644;28;20192;-49
2023/05/18 05:24:32;;;;;;;12.85;2.22;;;;;;;6.90;77.04;102734.50;4959086;28;20269;-48
2023/05/18 05:26:58;;;;;;;9.70;2.45;;;;;;;7.09;77.79;102754.19;4970088;28;20790;-47
2023/05/18 05:29:25;;;;;;;6.22;2.03;;;;;;;7.21;77.57;102751.59;4970007;28;20687;-50
2023/05/18 05:31:50;;;;;;;8.68;2.42;;;;;;;6.98;77.32;102760.31;4959162;28;20167;-48
2023/05/18 05:34:16;;;;;;;11.30;2.70;;;;;;;7.12;77.38;102763.06;4968443;28;20212;-45
2023/05/18 05:36:42;;;;;;;8.70;2.38;;;;;;;7.09;76.79;102756.84;4969856;28;20182;-46
2023/05/18 05:39:07;;;;;;;8.35;2.20;;;;;;;7.10;77.11;102755.97;4970892;28;20553;-51
2023/05/18 05:41:33;;;;;;;13.38;2.55;;;;;;;7.17;76.86;102757.78;4964498;28;20787;-51
2023/05/18 05:43:59;;;;;;;11.10;1.90;;;;;;;7.22;76.89;102756.94;4969537;28;20292;-53
2023/05/18 05:46:25;;;;;;;9.13;2.50;;;;;;;7.26;76.28;102759.63;4970058;28;20555;-49
2023/05/18 05:48:51;;;;;;;12.52;2.28;;;;;;;7.29;75.64;102765.88;4968283;28;20174;-49
2023/05/18 05:51:16;;;;;;;12.43;2.17;;;;;;;7.42;75.23;102766.84;4970360;28;20184;-49
2023/05/18 05:53:42;;;;;;;6.10;1.70;;;;;;;7.42;75.20;102754.38;4957768;28;20213;-52
2023/05/18 05:56:08;;;;;;;15.32;2.63;;;;;;;7.39;75.22;102762.38;4973763;28;20760;-48
2023/05/18 05:58:37;;;;;;;5.60;2.05;;;;;;;7.06;74.55;102763.03;4973895;28;20525;-47
2023/05/18 06:01:03;;;;;;;15.57;2.75;;;;;;;6.78;73.88;102751.28;4973237;28;20194;-47
2023/05/18 06:03:30;;;;;;;9.27;2.20;;;;;;;6.87;73.10;102745.13;4974604;28;20736;-47
2023/05/18 06:05:59;;;;;;;10.80;2.97;;;;;;;7.04;73.21;102751.50;4974013;28;20202;-48
2023/05/18 06:08:26;;;;;;;9.15;2.05;;;;;;;7.50;73.52;102758.88;4973633;28;20643;-47
2023/05/18 06:10:54;;;;;;;6.35;1.95;;;;;;;7.96;73.20;102768.00;4973404;28;20182;-47
2023/05/18 06:13:19;;;;;;;10.32;2.63;;;;;;;8.11;73.18;102761.84;4972480;28;20237;-47
2023/05/18 06:15:50;;;;;;;9.15;2.15;;;;;;;7.78;72.57;102763.47;4986991;28;20166;-47
2023/05/18 06:18:15;;;;;;;7.47;2.15;;;;;;;8.01;72.84;102758.22;4971921;28;20189;-48
2023/05/18 06:20:41;;;;;;;7.38;2.03;;;;;;;8.05;72.07;102760.03;4964950;28;20249;-49
2023/05/18 06:23:07;;;;;;;8.20;2.40;;;;;;;8.16;71.58;102768.06;4983179;28;20239;-52
2023/05/18 06:26:04;;;;;;;7.30;2.35;;;;;;;8.04;71.35;102760.88;4973209;28;20197;-48
2023/05/18 06:28:53;;;;;;;10.68;2.15;;;;;;;8.15;71.11;102765.38;4963632;28;20228;-47
2023/05/18 06:31:29;;;;;;;8.70;2.10;;;;;;;7.69;71.18;102763.41;4969446;28;20194;-46
2023/05/18 06:34:00;;;;;;;5.97;2.20;;;;;;;8.09;71.55;102768.94;4969431;28;20252;-50
2023/05/18 06:36:26;;;;;;;11.35;2.22;;;;;;;8.21;71.81;102760.94;4964891;28;20265;-49
2023/05/18 06:38:52;;;;;;;8.27;2.15;;;;;;;8.15;71.18;102771.59;4971091;28;20261;-50
2023/05/18 06:41:17;;;;;;;9.20;2.55;;;;;;;8.18;70.46;102760.94;4965598;28;20190;-48
2023/05/18 06:43:43;;;;;;;6.68;2.10;;;;;;;8.02;70.18;102759.09;4972735;28;20208;-47
2023/05/18 06:46:21;;;;;;;8.10;2.30;;;;;;;7.84;70.41;102762.59;4972042;28;20288;-47
2023/05/18 06:48:50;;;;;;;7.45;2.25;;;;;;;8.00;70.20;102771.56;4972406;28;20610;-50
2023/05/18 06:51:15;;;;;;;8.27;2.00;;;;;;;8.00;70.29;102759.13;4972771;28;20178;-48
2023/05/18 06:53:42;;;;;;;6.65;1.85;;;;;;;7.98;70.31;102776.91;4972477;28;20665;-53
2023/05/18 06:56:10;;;;;;;8.07;2.47;;;;;;;8.04;69.96;102776.91;4971305;28;20182;-51
2023/05/18 06:58:36;;;;;;;11.80;2.17;;;;;;;7.81;70.74;102771.50;4965551;28;20190;-47
2023/05/18 07:01:03;;;;;;;9.57;2.30;;;;;;;8.00;70.59;102783.16;4972325;28;20257;-49
2023/05/18 07:03:29;;;;;;;10.18;2.30;;;;;;;7.96;69.50;102767.09;4971443;28;20241;-46
2023/05/18 07:05:54;;;;;;;14.68;2.40;;;;;;;8.58;69.05;102771.75;4967858;28;20243;-48
2023/05/18 07:08:21;;;;;;;10.05;2.15;;;;;;;8.89;68.36;102766.41;4973654;28;20768;-47
2023/05/18 07:10:46;;;;;;;5.28;2.03;;;;;;;8.90;67.86;102768.22;4965278;28;20270;-45
2023/05/18 07:13:12;;;;;;;6.30;2.10;;;;;;;8.92;67.43;102763.75;4965771;28;20288;-48
2023/05/18 07:15:38;;;;;;;12.18;2.05;;;;;;;9.31;66.58;102759.22;4971607;28;20680;-48
2023/05/18 07:18:03;;;;;;;10.77;2.78;;;;;;;9.45;66.17;102753.88;4969087;28;20190;-51
2023/05/18 07:20:29;;;;;;;6.00;2.05;;;;;;;10.13;65.22;102750.94;4966905;28;20170;-47
2023/05/18 07:22:54;;;;;;;8.60;1.60;;;;;;;9.61;65.05;102744.00;4961367;28;20225;-47
2023/05/18 07:25:20;;;;;;;9.40;2.10;;;;;;;9.59;65.09;102748.47;4971111;28;20273;-51
2023/05/18 07:27:46;;;;;;;7.32;2.40;;;;;;;9.45;64.68;102751.19;4966294;28;20238;-52
2023/05/18 07:30:12;;;;;;;8.05;2.10;;;;;;;8.56;64.62;102744.13;4965705;28;20178;-50
2023/05/18 07:32:37;;;;;;;10.60;2.60;;;;;;;8.72;65.80;102744.13;4969741;28;20182;-51
2023/05/18 07:35:03;;;;;;;11.70;2.08;;;;;;;8.75;66.27;102753.06;4968139;28;20206;-47
2023/05/18 07:37:29;;;;;;;9.50;2.30;;;;;;;9.14;65.60;102756.59;4964573;28;20190;-46
2023/05/18 07:39:55;;;;;;;10.02;2.22;;;;;;;9.94;64.79;102747.44;4963425;28;20178;-49
2023/05/18 07:42:21;;;;;;;12.10;2.03;;;;;;;10.17;62.85;102728.59;4961186;28;20302;-48
2023/05/18 07:44:46;;;;;;;9.63;2.33;;;;;;;10.93;62.56;102728.03;4966420;28;20634;-48
2023/05/18 07:47:12;;;;;;;5.45;1.60;;;;;;;11.30;61.66;102718.69;4967826;28;20229;-50
2023/05/18 07:49:41;;;;;;;4.32;1.67;;;;;;;11.47;60.33;102705.97;4969963;28;20224;-46
2023/05/18 07:52:07;;;;;;;7.88;2.08;;;;;;;11.76;59.54;102699.34;4962642;28;20179;-48
2023/05/18 07:54:33;;;;;;;6.28;1.98;;;;;;;10.72;59.36;102682.63;4962953;28;20219;-51
2023/05/18 07:56:59;;;;;;;7.13;2.30;;;;;;;11.11;59.76;102700.13;4953407;28;20267;-49
2023/05/18 07:59:24;;;;;;;9.18;1.98;;;;;;;11.25;58.73;102693.72;4938339;28;20544;-47
2023/05/18 08:01:50;;;;;;;7.38;2.20;;;;;;;10.86;59.16;102702.16;4965582;28;20672;-48
2023/05/18 08:04:15;;;;;;;8.40;2.20;;;;;;;10.69;59.22;102709.44;4965154;28;20635;-49
2023/05/18 08:06:40;;;;;;;10.90;1.85;;;;;;;11.85;58.28;102691.19;4969254;28;20241;-50
2023/05/18 08:09:06;;;;;;;6.43;2.00;;;;;;;11.73;58.21;102694.91;4965661;28;20205;-48
2023/05/18 08:11:32;;;;;;;11.13;2.28;;;;;;;11.31;58.15;102686.50;4967284;28;20178;-49
2023/05/18 08:13:57;;;;;;;7.32;2.03;;;;;;;11.72;58.11;102708.38;4968594;28;20199;-47
2023/05/18 08:16:23;;;;;;;8.38;2.28;;;;;;;11.46;57.47;102684.53;4966249;28;20196;-47
2023/05/18 08:18:49;;;;;;;7.00;2.30;;;;;;;11.35;57.74;102687.34;4967018;28;20186;-48
2023/05/18 08:21:15;;;;;;;7.72;2.03;;;;;;;12.17;56.96;102689.84;4968111;28;20710;-49
2023/05/18 08:23:41;;;;;;;8.35;2.40;;;;;;;11.68;56.63;102675.31;4964143;28;20285;-48
2023/05/18 08:26:07;;;;;;;7.90;2.30;;;;;;;11.69;57.09;102689.59;4969143;28;20288;-49
2023/05/18 08:28:33;;;;;;;7.72;2.20;;;;;;;11.44;57.54;102700.66;4967699;28;20190;-49
2023/05/18 08:30:58;;;;;;;7.47;2.10;;;;;;;12.08;56.86;102711.50;4965051;28;20371;-47
2023/05/18 08:33:24;;;;;;;7.03;1.95;;;;;;;10.71;57.26;102692.47;4967667;28;20251;-49
2023/05/18 08:35:50;;;;;;;11.18;2.05;;;;;;;10.63;57.80;102705.06;4952276;28;20174;-48
2023/05/18 08:38:16;;;;;;;8.70;2.00;;;;;;;10.57;58.54;102710.47;4967699;28;20600;-47
2023/05/18 08:40:49;;;;;;;5.70;1.77;;;;;;;11.27;58.73;102713.38;4967865;28;20190;-48
2023/05/18 08:43:23;;;;;;;7.13;2.10;;;;;;;11.18;58.33;102711.69;4965379;28;20525;-48
2023/05/18 08:45:57;;;;;;;6.00;2.10;;;;;;;10.58;58.28;102697.94;4967889;28;22629;-50
2023/05/18 08:48:25;;;;;;;9.95;2.28;;;;;;;12.09;58.70;102708.81;4964290;28;20179;-49
2023/05/18 08:50:53;;;;;;;10.57;2.42;;;;;;;12.44;57.26;102701.09;4963556;28;20170;-48
2023/05/18 08:53:23;;;;;;;4.93;2.10;;;;;;;12.44;55.45;102687.66;4948106;28;20333;-49
2023/05/18 08:55:52;;;;;;;9.73;2.40;;;;;;;13.06;54.64;102672.22;4963206;28;20247;-47
2023/05/18 08:58:20;;;;;;;6.60;2.03;;;;;;;13.08;54.86;102667.69;4966836;28;20186;-47
2023/05/18 09:00:46;;;;;;;7.85;1.80;;;;;;;13.31;54.87;102669.94;4945452;28;20188;-47
2023/05/18 09:03:12;;;;;;;7.18;2.22;;;;;;;12.50;54.70;102664.22;4963491;28;20568;-50
2023/05/18 09:05:40;;;;;;;8.32;1.80;;;;;;;13.68;55.27;102677.25;4957562;28;20209;-47
2023/05/18 09:08:07;;;;;;;8.90;2.40;;;;;;;13.57;53.50;102655.94;4959965;28;20194;-50
2023/05/18 09:10:32;;;;;;;8.35;2.25;;;;;;;13.06;53.78;102652.50;4966051;28;20178;-49
2023/05/18 09:13:00;;;;;;;8.57;2.22;;;;;;;11.26;54.54;102645.41;4967175;28;20607;-48
2023/05/18 09:15:26;;;;;;;6.65;2.45;;;;;;;12.39;55.89;102678.78;4964058;28;20193;-49
2023/05/18 09:17:52;;;;;;;10.85;2.35;;;;;;;12.65;55.25;102684.59;4966027;28;20313;-48
2023/05/18 09:20:18;;;;;;;9.05;1.95;;;;;;;12.12;55.03;102662.19;4967032;28;20273;-48
2023/05/18 09:22:44;;;;;;;7.95;2.17;;;;;;;13.43;54.88;102679.59;4961217;28;20190;-50
2023/05/18 09:25:10;;;;;;;6.90;1.80;;;;;;;13.38;52.95;102655.47;4963998;28;20189;-48
2023/05/18 09:27:36;;;;;;;8.25;2.30;;;;;;;12.29;53.79;102648.50;4950779;28;20210;-50
2023/05/18 09:30:02;;;;;;;5.53;2.10;;;;;;;12.84;54.63;102665.47;4966961;28;20194;-48
2023/05/18 09:32:33;;;;;;;7.57;2.15;;;;;;;13.23;53.12;102644.06;4967929;28;20260;-48
2023/05/18 09:35:03;;;;;;;7.55;2.10;;;;;;;13.60;51.87;102622.69;4962933;28;20212;-49
2023/05/18 09:37:30;;;;;;;4.78;1.90;;;;;;;14.38;49.54;102607.31;4962885;28;20190;-47
2023/05/18 09:39:59;;;;;;;5.93;2.00;;;;;;;13.07;51.40;102621.97;4968334;28;20185;-47
2023/05/18 09:42:39;;;;;;;7.60;2.30;;;;;;;13.65;52.02;102636.94;4962347;28;20661;-48
2023/05/18 09:45:15;;;;;;;7.28;2.35;;;;;;;14.46;52.09;102646.72;4964410;28;20562;-49
2023/05/18 09:47:40;;;;;;;5.68;1.80;;;;;;;14.58;50.41;102620.34;4967780;28;20194;-48
2023/05/18 09:50:06;;;;;;;7.78;2.47;;;;;;;12.57;51.37;102611.25;4965158;28;20544;-48
2023/05/18 09:52:40;;;;;;;7.63;2.30;;;;;;;12.73;53.38;102645.03;4967888;28;20182;-47
2023/05/18 09:55:06;;;;;;;4.90;1.88;;;;;;;12.60;54.07;102662.28;4947247;28;20195;-48
2023/05/18 09:57:39;;;;;;;13.07;2.75;;;;;;;11.99;54.50;102652.53;4964726;28;20166;-47
2023/05/18 10:00:09;;;;;;;6.97;2.08;;;;;;;12.06;54.99;102659.59;4968317;28;20186;-48
2023/05/18 10:02:40;;;;;;;10.00;2.08;;;;;;;11.93;55.27;102659.75;4961676;28;20642;-46
2023/05/18 10:05:18;;;;;;;8.10;2.47;;;;;;;12.16;55.91;102669.28;4965599;28;20672;-49
2023/05/18 10:07:44;;;;;;;8.48;2.10;;;;;;;12.71;55.37;102665.69;4964311;28;20287;-49
2023/05/18 10:10:10;;;;;;;8.80;2.35;;;;;;;13.35;54.22;102668.09;4942531;28;20256;-49
2023/05/18 10:12:38;;;;;;;8.30;2.10;;;;;;;12.44;53.83;102652.69;4966151;28;20253;-50
2023/05/18 10:15:08;;;;;;;7.85;2.45;;;;;;;11.79;55.05;102645.63;4966530;28;20190;-48
2023/05/18 10:17:36;;;;;;;5.50;2.00;;;;;;;13.16;55.18;102684.59;4966966;28;20244;-48
2023/05/18 10:20:07;;;;;;;9.88;2.30;;;;;;;13.67;52.62;102645.00;4967947;28;20533;-49
2023/05/18 10:22:35;;;;;;;7.05;2.25;;;;;;;14.37;51.52;102643.31;4957993;28;20198;-47
2023/05/18 10:25:03;;;;;;;7.82;2.45;;;;;;;14.38;51.21;102633.41;4963853;28;20209;-48
2023/05/18 10:27:32;;;;;;;6.47;2.42;;;;;;;14.42;51.41;102633.28;4963266;28;20205;-49
2023/05/18 10:29:58;;;;;;;5.68;1.95;;;;;;;15.11;51.16;102635.09;4961229;28;20197;-49
2023/05/18 10:32:24;;;;;;;6.35;2.00;;;;;;;15.18;49.75;102624.09;4944502;28;20198;-46
2023/05/18 10:34:52;;;;;;;7.60;2.47;;;;;;;14.71;48.71;102599.31;4964662;28;20265;-49
2023/05/18 10:37:21;;;;;;;9.85;2.47;;;;;;;14.98;47.87;102580.59;4961984;28;20169;-47
2023/05/18 10:39:49;;;;;;;5.95;1.90;;;;;;;15.00;47.93;102586.84;4965977;28;20182;-47
2023/05/18 10:42:16;;;;;;;7.80;2.42;;;;;;;15.07;49.25;102601.03;4964630;28;20209;-47
2023/05/18 10:44:43;;;;;;;6.80;2.03;;;;;;;15.03;48.69;102594.84;4969497;28;20344;-49
2023/05/18 10:47:10;;;;;;;5.15;1.92;;;;;;;12.69;51.25;102594.91;4951836;28;20673;-47
2023/05/18 10:49:36;;;;;;;5.50;2.30;;;;;;;12.90;52.10;102619.59;4962218;28;20218;-48
2023/05/18 10:52:02;;;;;;;7.80;2.60;;;;;;;12.72;52.41;102620.84;4969727;28;20604;-47
2023/05/18 10:54:29;;;;;;;9.40;2.67;;;;;;;12.76;52.20;102622.56;4965266;28;20201;-48
2023/05/18 10:56:55;;;;;;;5.05;2.05;;;;;;;13.17;51.54;102612.81;4955880;28;20260;-46
2023/05/18 10:59:23;;;;;;;7.53;2.20;;;;;;;12.77;51.69;102610.91;4971062;28;20221;-48
2023/05/18 11:01:51;;;;;;;7.15;2.28;;;;;;;13.20;51.31;102613.59;4955386;28;20186;-48
2023/05/18 11:04:23;;;;;;;8.63;2.13;;;;;;;13.62;51.73;102625.34;4970682;28;20198;-48
2023/05/18 11:06:59;;;;;;;10.88;2.63;;;;;;;14.05;52.30;102635.13;4968205;28;20198;-48
2023/05/18 11:09:27;;;;;;;7.15;1.92;;;;;;;13.38;51.76;102619.56;4965512;28;20182;-48
2023/05/18 11:11:56;;;;;;;5.20;1.90;;;;;;;13.03;52.02;102615.78;4968041;28;20193;-47
2023/05/18 11:14:26;;;;;;;8.82;2.15;;;;;;;12.76;52.23;102627.94;4968843;28;20737;-47
2023/05/18 11:16:53;;;;;;;9.00;2.55;;;;;;;12.66;52.43;102616.47;4955158;28;20281;-47
2023/05/18 11:19:23;;;;;;;4.45;1.70;;;;;;;13.79;52.73;102636.63;4965597;28;20182;-47
2023/05/18 11:21:51;;;;;;;5.85;2.13;;;;;;;13.58;51.74;102621.84;4969533;28;20166;-47
2023/05/18 11:24:28;;;;;;;9.65;2.53;;;;;;;13.51;51.71;102621.09;4966504;28;20268;-46
2023/05/18 11:26:58;;;;;;;7.18;2.03;;;;;;;13.15;51.38;102615.50;4970783;28;20229;-46
2023/05/18 11:29:30;;;;;;;8.15;2.75;;;;;;;13.99;51.56;102623.59;4966821;28;20244;-46
2023/05/18 11:31:56;;;;;;;10.48;2.30;;;;;;;14.73;50.54;102626.25;4970321;28;20213;-47